createdAt,value
2022-11-02T00:00:28.156Z,10.69
2022-11-02T00:02:55.419Z,10.67
2022-11-02T00:05:25.787Z,10.66
2022-11-02T00:07:54.266Z,10.65
2022-11-02T00:10:23.684Z,10.65
2022-11-02T00:12:52.120Z,10.65
2022-11-02T00:15:20.013Z,10.61
2022-11-02T00:17:54.166Z,10.63
2022-11-02T00:20:21.849Z,10.62
2022-11-02T00:22:52.791Z,10.39
2022-11-02T00:25:22.804Z,10.60
2022-11-02T00:27:50.299Z,10.58
2022-11-02T00:30:18.444Z,10.55
2022-11-02T00:32:45.786Z,10.54
2022-11-02T00:35:13.545Z,10.39
2022-11-02T00:37:40.949Z,10.48
2022-11-02T00:40:08.835Z,10.45
2022-11-02T00:42:36.070Z,10.12
2022-11-02T00:45:03.321Z,10.38
2022-11-02T00:47:30.725Z,10.34
2022-11-02T00:49:57.988Z,10.29
2022-11-02T00:52:25.534Z,10.27
2022-11-02T00:54:52.839Z,10.26
2022-11-02T00:57:20.212Z,10.24
2022-11-02T00:59:47.596Z,10.22
2022-11-02T01:02:15.201Z,10.14
2022-11-02T01:04:42.558Z,10.19
2022-11-02T01:07:09.885Z,10.17
2022-11-02T01:09:37.374Z,10.16
2022-11-02T01:12:05.986Z,10.15
2022-11-02T01:14:33.299Z,10.14
2022-11-02T01:17:00.603Z,10.14
2022-11-02T01:19:27.950Z,10.13
2022-11-02T01:21:55.309Z,10.11
2022-11-02T01:24:22.489Z,10.12
2022-11-02T01:26:53.570Z,10.13
2022-11-02T01:29:20.755Z,10.07
2022-11-02T01:31:49.024Z,10.16
2022-11-02T01:34:16.501Z,10.19
2022-11-02T01:36:46.371Z,10.23
2022-11-02T01:39:14.390Z,10.18
2022-11-02T01:41:42.439Z,10.29
2022-11-02T01:44:31.943Z,10.32
2022-11-02T01:47:27.839Z,10.32
2022-11-02T01:50:10.690Z,10.31
2022-11-02T01:52:39.220Z,10.27
2022-11-02T01:55:30.204Z,10.25
2022-11-02T01:58:05.210Z,10.21
2022-11-02T02:00:32.434Z,10.17
2022-11-02T02:03:18.625Z,10.12
2022-11-02T02:05:55.603Z,10.07
2022-11-02T02:08:40.786Z,10.01
2022-11-02T02:11:52.351Z,10.01
2022-11-02T02:14:38.752Z,9.95
2022-11-02T02:18:05.340Z,9.91
2022-11-02T02:20:54.907Z,9.85
2022-11-02T02:24:10.697Z,9.80
2022-11-02T02:26:56.665Z,9.73
2022-11-02T02:29:33.747Z,9.68
2022-11-02T02:32:13.804Z,9.64
2022-11-02T02:35:15.665Z,9.53
2022-11-02T02:37:47.494Z,9.58
2022-11-02T02:40:41.553Z,9.54
2022-11-02T02:43:13.563Z,9.50
2022-11-02T02:45:45.112Z,9.47
2022-11-02T02:48:20.353Z,9.44
2022-11-02T02:50:55.070Z,9.40
2022-11-02T02:53:28.783Z,9.37
2022-11-02T02:56:00.162Z,9.35
2022-11-02T02:58:33.308Z,9.30
2022-11-02T03:01:02.318Z,9.28
2022-11-02T03:03:31.308Z,9.24
2022-11-02T03:06:10.079Z,9.19
2022-11-02T03:08:39.972Z,9.16
2022-11-02T03:11:19.463Z,9.13
2022-11-02T03:14:06.744Z,9.12
2022-11-02T03:16:55.486Z,9.12
2022-11-02T03:19:41.997Z,9.13
2022-11-02T03:22:44.734Z,9.07
2022-11-02T03:25:40.753Z,9.15
2022-11-02T03:28:18.752Z,9.16
2022-11-02T03:30:53.374Z,9.15
2022-11-02T03:33:35.071Z,9.13
2022-11-02T03:36:39.798Z,9.02
2022-11-02T03:39:10.017Z,9.04
2022-11-02T03:41:41.204Z,9.05
2022-11-02T03:44:12.067Z,9.06
2022-11-02T03:46:42.284Z,9.05
2022-11-02T03:49:13.990Z,9.07
2022-11-02T03:51:44.224Z,9.07
2022-11-02T03:54:23.270Z,9.09
2022-11-02T03:56:53.714Z,9.12
2022-11-02T03:59:20.684Z,9.13
2022-11-02T04:01:50.804Z,9.13
2022-11-02T04:04:18.782Z,9.15
2022-11-02T04:06:48.488Z,9.08
2022-11-02T04:09:16.049Z,9.15
2022-11-02T04:12:01.729Z,9.14
2022-11-02T04:14:41.355Z,9.15
2022-11-02T04:20:01.066Z,9.11
2022-11-02T04:22:46.521Z,9.09
2022-11-02T04:25:16.353Z,9.08
2022-11-02T04:27:43.602Z,9.03
2022-11-02T04:30:10.999Z,9.05
2022-11-02T04:32:57.634Z,9.05
2022-11-02T04:35:24.716Z,9.01
2022-11-02T04:38:10.376Z,8.97
2022-11-02T04:40:37.627Z,8.90
2022-11-02T04:43:04.782Z,8.90
2022-11-02T04:45:31.777Z,8.92
2022-11-02T04:48:04.449Z,8.95
2022-11-02T04:50:31.867Z,8.97
2022-11-02T04:53:01.005Z,8.98
2022-11-02T04:55:29.904Z,9.00
2022-11-02T04:57:57.009Z,8.99
2022-11-02T05:00:24.318Z,8.99
2022-11-02T05:02:51.678Z,8.95
2022-11-02T05:05:18.719Z,8.91
2022-11-02T05:07:45.807Z,8.89
2022-11-02T05:10:12.741Z,8.89
2022-11-02T05:12:39.829Z,8.87
2022-11-02T05:15:07.260Z,8.85
2022-11-02T05:17:34.312Z,8.79
2022-11-02T05:20:01.371Z,8.71
2022-11-02T05:22:28.323Z,8.70
2022-11-02T05:24:55.321Z,8.59
2022-11-02T05:27:22.216Z,8.56
2022-11-02T05:29:49.057Z,8.56
2022-11-02T05:32:16.072Z,8.54
2022-11-02T05:34:42.972Z,8.53
2022-11-02T05:37:10.151Z,8.49
2022-11-02T05:39:37.610Z,8.48
2022-11-02T05:42:04.757Z,8.44
2022-11-02T05:44:31.650Z,8.45
2022-11-02T05:46:58.616Z,8.46
2022-11-02T05:49:25.693Z,8.48
2022-11-02T05:51:52.656Z,8.44
2022-11-02T05:54:19.574Z,8.52
2022-11-02T05:56:46.830Z,8.60
2022-11-02T05:59:14.081Z,8.69
2022-11-02T06:01:41.225Z,8.77
2022-11-02T06:04:08.453Z,8.86
2022-11-02T06:06:35.525Z,9.00
2022-11-02T06:09:06.893Z,9.09
2022-11-02T06:11:34.428Z,9.17
2022-11-02T06:14:01.411Z,9.24
2022-11-02T06:16:28.527Z,9.37
2022-11-02T06:18:55.680Z,9.45
2022-11-02T06:21:22.665Z,9.53
2022-11-02T06:23:50.521Z,9.60
2022-11-02T06:26:18.077Z,9.65
2022-11-02T06:28:45.069Z,9.70
2022-11-02T06:31:12.440Z,9.77
2022-11-02T06:33:39.340Z,9.82
2022-11-02T06:36:06.718Z,9.88
2022-11-02T06:38:33.626Z,9.90
2022-11-02T06:41:04.125Z,9.95
2022-11-02T06:43:31.113Z,10.04
2022-11-02T06:45:58.640Z,10.12
2022-11-02T06:48:31.551Z,10.22
2022-11-02T06:51:01.686Z,10.31
2022-11-02T06:53:28.965Z,10.37
2022-11-02T06:55:57.978Z,10.51
2022-11-02T06:58:26.140Z,10.51
2022-11-02T07:01:01.591Z,10.42
2022-11-02T07:03:30.211Z,10.44
2022-11-02T07:05:57.683Z,10.47
2022-11-02T07:08:25.681Z,10.34
2022-11-02T07:10:52.615Z,10.35
2022-11-02T07:13:19.671Z,10.40
2022-11-02T07:15:46.829Z,10.49
2022-11-02T07:18:14.383Z,10.53
2022-11-02T07:20:41.501Z,10.65
2022-11-02T07:23:10.110Z,10.70
2022-11-02T07:25:37.242Z,10.79
2022-11-02T07:28:04.631Z,10.87
2022-11-02T07:30:33.506Z,10.95
2022-11-02T07:33:01.780Z,11.03
2022-11-02T07:35:28.841Z,11.04
2022-11-02T07:38:02.640Z,11.09
2022-11-02T07:40:31.082Z,11.06
2022-11-02T07:42:58.553Z,11.18
2022-11-02T07:45:26.230Z,11.17
2022-11-02T07:47:53.152Z,11.28
2022-11-02T07:50:22.672Z,11.40
2022-11-02T07:52:55.458Z,11.52
2022-11-02T07:55:28.080Z,11.56
2022-11-02T07:57:57.439Z,11.61
2022-11-02T08:00:26.356Z,11.64
2022-11-02T08:02:57.936Z,11.69
2022-11-02T08:05:26.154Z,11.73
2022-11-02T08:08:00.577Z,11.70
2022-11-02T08:10:29.092Z,11.77
2022-11-02T08:12:56.709Z,11.87
2022-11-02T08:15:24.135Z,11.97
2022-11-02T08:18:07.833Z,11.99
2022-11-02T08:20:36.798Z,11.91
2022-11-02T08:23:05.202Z,12.15
2022-11-02T08:25:33.018Z,12.22
2022-11-02T08:28:01.436Z,12.33
2022-11-02T08:30:30.584Z,12.39
2022-11-02T08:33:03.964Z,12.49
2022-11-02T08:35:30.872Z,12.52
2022-11-02T08:38:00.120Z,12.64
2022-11-02T08:40:27.718Z,12.78
2022-11-02T08:42:59.138Z,12.84
2022-11-02T08:45:27.216Z,13.05
2022-11-02T08:47:54.445Z,13.11
2022-11-02T08:50:22.647Z,13.18
2022-11-02T08:52:49.696Z,13.19
2022-11-02T08:55:16.813Z,13.26
2022-11-02T08:57:56.781Z,13.35
2022-11-02T09:00:26.628Z,13.43
2022-11-02T09:03:03.566Z,13.42
2022-11-02T09:05:32.985Z,13.56
2022-11-02T09:08:05.903Z,13.69
2022-11-02T09:10:35.275Z,13.85
2022-11-02T09:13:05.844Z,13.99
2022-11-02T09:15:34.966Z,14.12
2022-11-02T09:18:02.241Z,13.79
2022-11-02T09:20:29.601Z,13.71
2022-11-02T09:22:56.651Z,13.66
2022-11-02T09:25:23.797Z,13.61
2022-11-02T09:27:55.955Z,13.54
2022-11-02T09:30:24.364Z,13.52
2022-11-02T09:33:02.741Z,13.62
2022-11-02T09:35:32.354Z,13.69
2022-11-02T09:37:59.347Z,14.00
2022-11-02T09:40:29.037Z,14.08
2022-11-02T09:43:06.713Z,14.18
2022-11-02T09:45:44.528Z,13.96
2022-11-02T09:48:23.507Z,14.16
2022-11-02T09:51:15.137Z,14.34
2022-11-02T09:53:52.655Z,14.45
2022-11-02T09:56:22.801Z,14.38
2022-11-02T09:59:01.752Z,14.26
2022-11-02T10:01:50.393Z,14.55
2022-11-02T10:04:51.180Z,14.71
2022-11-02T10:07:24.064Z,14.72
2022-11-02T10:10:01.388Z,14.74
2022-11-02T10:12:51.093Z,14.73
2022-11-02T10:15:23.089Z,14.56
2022-11-02T10:17:56.800Z,14.79
2022-11-02T10:20:30.247Z,14.96
2022-11-02T10:23:03.950Z,14.58
2022-11-02T10:25:31.269Z,14.72
2022-11-02T10:28:12.421Z,14.69
2022-11-02T10:30:40.710Z,14.64
2022-11-02T10:33:20.631Z,14.79
2022-11-02T10:38:58.269Z,14.83
2022-11-02T10:41:49.725Z,14.94
2022-11-02T10:44:48.970Z,14.93
2022-11-02T10:47:20.026Z,14.96
2022-11-02T10:49:49.940Z,15.21
2022-11-02T10:52:18.730Z,15.21
2022-11-02T10:54:45.771Z,15.16
2022-11-02T10:57:15.073Z,14.99
2022-11-02T10:59:42.008Z,15.18
2022-11-02T11:02:13.874Z,15.15
2022-11-02T11:04:42.661Z,15.08
2022-11-02T11:07:22.303Z,15.09
2022-11-02T11:09:55.392Z,15.31
2022-11-02T11:12:31.045Z,15.38
2022-11-02T11:20:38.355Z,15.61
2022-11-02T11:23:23.344Z,15.35
2022-11-02T11:26:02.563Z,15.55
2022-11-02T11:28:31.470Z,15.57
2022-11-02T11:31:09.012Z,15.53
2022-11-02T11:33:57.532Z,15.53
2022-11-02T11:36:37.238Z,15.61
2022-11-02T11:39:22.926Z,15.67
2022-11-02T11:41:49.985Z,15.72
2022-11-02T11:44:17.172Z,15.77
2022-11-02T11:46:48.667Z,15.49
2022-11-02T11:52:31.601Z,15.60
2022-11-02T11:55:20.872Z,15.76
2022-11-02T11:58:13.538Z,16.04
2022-11-02T12:00:40.664Z,15.77
2022-11-02T12:03:11.671Z,15.74
2022-11-02T12:06:08.392Z,15.99
2022-11-02T12:08:51.002Z,16.07
2022-11-02T12:11:48.524Z,16.12
2022-11-02T12:14:31.443Z,16.35
2022-11-02T12:17:01.208Z,16.40
2022-11-02T12:19:51.138Z,16.36
2022-11-02T12:22:39.252Z,15.77
2022-11-02T12:25:31.016Z,15.77
2022-11-02T12:28:28.768Z,15.90
2022-11-02T12:31:10.739Z,15.88
2022-11-02T12:34:01.925Z,15.92
2022-11-02T12:36:49.670Z,16.07
2022-11-02T12:39:51.504Z,16.06
2022-11-02T12:42:28.996Z,16.11
2022-11-02T12:45:26.915Z,16.19
2022-11-02T12:48:00.279Z,16.20
2022-11-02T12:50:51.978Z,16.23
2022-11-02T12:53:18.866Z,16.36
2022-11-02T12:55:51.340Z,16.41
2022-11-02T12:58:22.255Z,16.35
2022-11-02T13:00:55.929Z,16.53
2022-11-02T13:03:40.229Z,16.47
2022-11-02T13:06:14.033Z,16.67
2022-11-02T13:08:50.468Z,16.46
2022-11-02T13:11:29.014Z,16.34
2022-11-02T13:13:59.765Z,16.59
2022-11-02T13:16:43.576Z,16.71
2022-11-02T13:19:22.319Z,16.69
2022-11-02T13:21:55.344Z,16.58
2022-11-02T13:24:33.998Z,16.33
2022-11-02T13:29:57.909Z,16.08
2022-11-02T13:32:43.882Z,16.44
2022-11-02T13:35:20.872Z,16.17
2022-11-02T13:38:04.591Z,16.39
2022-11-02T13:40:47.537Z,16.31
2022-11-02T13:43:14.406Z,16.48
2022-11-02T13:45:50.536Z,16.34
2022-11-02T13:48:36.239Z,16.26
2022-11-02T13:51:25.714Z,16.20
2022-11-02T13:54:15.278Z,16.00
2022-11-02T13:56:43.753Z,15.99
2022-11-02T13:59:21.050Z,15.86
2022-11-02T14:01:49.146Z,15.87
2022-11-02T14:04:16.862Z,15.69
2022-11-02T14:07:06.362Z,15.61
2022-11-02T14:09:44.887Z,15.71
2022-11-02T14:12:17.916Z,15.80
2022-11-02T14:14:45.876Z,15.81
2022-11-02T14:17:19.147Z,15.73
2022-11-02T14:19:48.854Z,15.61
2022-11-02T14:22:17.644Z,15.56
2022-11-02T14:24:48.661Z,15.41
2022-11-02T14:27:19.518Z,15.39
2022-11-02T14:29:46.623Z,15.31
2022-11-02T14:32:16.386Z,15.23
2022-11-02T14:35:08.762Z,15.05
2022-11-02T14:38:06.780Z,14.97
2022-11-02T14:40:48.954Z,14.88
2022-11-02T14:43:49.474Z,14.79
2022-11-02T14:46:16.428Z,14.66
2022-11-02T14:48:50.735Z,14.58
2022-11-02T14:51:29.259Z,14.49
2022-11-02T14:54:17.838Z,14.32
2022-11-02T14:57:01.824Z,14.09
2022-11-02T15:00:17.744Z,13.89
2022-11-02T15:02:45.385Z,13.78
2022-11-02T15:05:35.857Z,13.70
2022-11-02T15:08:31.598Z,13.56
2022-11-02T15:10:58.562Z,13.39
2022-11-02T15:13:48.857Z,13.31
2022-11-02T15:16:16.804Z,13.18
2022-11-02T15:18:43.634Z,13.12
2022-11-02T15:21:10.608Z,13.11
2022-11-02T15:26:23.694Z,13.14
2022-11-02T15:28:54.319Z,13.18
2022-11-02T15:31:26.117Z,13.26
2022-11-02T15:34:04.269Z,13.32
2022-11-02T15:36:38.753Z,13.35
2022-11-02T15:39:12.150Z,13.37
2022-11-02T15:41:42.121Z,13.35
2022-11-02T15:44:24.369Z,13.35
2022-11-02T15:47:04.403Z,13.37
2022-11-02T15:49:59.088Z,13.42
2022-11-02T15:52:35.041Z,13.49
2022-11-02T15:55:21.812Z,13.54
2022-11-02T15:58:02.805Z,13.55
2022-11-02T16:00:32.864Z,13.58
2022-11-02T16:03:10.820Z,13.57
2022-11-02T16:05:47.835Z,13.51
2022-11-02T16:08:25.752Z,13.59
2022-11-02T16:11:13.424Z,13.57
2022-11-02T16:13:49.088Z,13.57
2022-11-02T16:16:30.810Z,13.55
2022-11-02T16:19:01.756Z,13.52
2022-11-02T16:21:28.760Z,13.49
2022-11-02T16:23:58.004Z,13.45
2022-11-02T16:26:29.644Z,13.40
2022-11-02T16:28:59.849Z,13.38
2022-11-02T16:31:31.883Z,13.34
2022-11-02T16:34:03.645Z,13.28
2022-11-02T16:36:35.245Z,13.25
2022-11-02T16:39:04.528Z,13.13
2022-11-02T16:41:34.260Z,13.13
2022-11-02T16:44:10.261Z,13.07
2022-11-02T16:46:49.935Z,13.00
2022-11-02T16:49:21.471Z,12.96
2022-11-02T16:51:53.724Z,12.87
2022-11-02T16:54:33.955Z,12.82
2022-11-02T16:57:21.303Z,12.77
2022-11-02T16:59:55.980Z,12.70
2022-11-02T17:02:31.585Z,12.64
2022-11-02T17:05:04.484Z,12.60
2022-11-02T17:07:47.655Z,12.55
2022-11-02T17:10:25.756Z,12.46
2022-11-02T17:12:53.614Z,12.37
2022-11-02T17:15:23.828Z,12.27
2022-11-02T17:17:51.141Z,12.12
2022-11-02T17:20:21.713Z,11.98
2022-11-02T17:22:52.247Z,11.92
2022-11-02T17:25:27.125Z,11.92
2022-11-02T17:28:04.110Z,11.88
2022-11-02T17:30:39.867Z,11.78
2022-11-02T17:33:30.228Z,11.72
2022-11-02T17:36:09.415Z,11.76
2022-11-02T17:38:37.725Z,11.76
2022-11-02T17:41:25.862Z,11.76
2022-11-02T17:43:53.811Z,11.78
2022-11-02T17:46:24.762Z,11.81
2022-11-02T17:48:54.405Z,11.84
2022-11-02T17:51:26.657Z,11.81
2022-11-02T17:53:59.192Z,11.74
2022-11-02T17:56:26.753Z,11.75
2022-11-02T17:58:54.339Z,11.75
2022-11-02T18:01:22.172Z,11.50
2022-11-02T18:03:50.057Z,11.74
2022-11-02T18:06:17.920Z,11.70
2022-11-02T18:09:04.426Z,11.66
2022-11-02T18:11:33.505Z,11.21
2022-11-02T18:14:01.288Z,11.55
2022-11-02T18:16:29.854Z,11.50
2022-11-02T18:18:57.388Z,11.44
2022-11-02T18:21:26.570Z,11.35
2022-11-02T18:23:54.644Z,11.29
2022-11-02T18:26:24.879Z,11.17
2022-11-02T18:28:53.231Z,11.07
2022-11-02T18:31:20.941Z,10.99
2022-11-02T18:33:49.174Z,10.91
2022-11-02T18:36:18.481Z,10.71
2022-11-02T18:38:45.864Z,10.83
2022-11-02T18:41:30.776Z,10.67
2022-11-02T18:44:04.642Z,10.65
2022-11-02T18:46:34.009Z,10.54
2022-11-02T18:49:05.236Z,10.48
2022-11-02T18:51:32.840Z,10.45
2022-11-02T18:54:03.058Z,10.42
2022-11-02T18:56:37.399Z,10.37
2022-11-02T18:59:04.779Z,10.33
2022-11-02T19:01:33.861Z,10.28
2022-11-02T19:04:02.313Z,10.20
2022-11-02T19:06:50.437Z,10.10
2022-11-02T19:09:18.890Z,9.99
2022-11-02T19:11:50.971Z,9.90
2022-11-02T19:14:19.350Z,9.84
2022-11-02T19:16:46.498Z,9.77
2022-11-02T19:19:13.462Z,9.74
2022-11-02T19:21:40.837Z,9.73
2022-11-02T19:24:08.372Z,9.73
2022-11-02T19:26:39.172Z,9.73
2022-11-02T19:29:07.101Z,9.69
2022-11-02T19:31:35.924Z,9.71
2022-11-02T19:34:03.097Z,9.72
2022-11-02T19:36:30.439Z,9.72
2022-11-02T19:38:58.674Z,9.76
2022-11-02T19:41:26.267Z,9.56
2022-11-02T19:43:53.435Z,9.39
2022-11-02T19:46:23.035Z,9.69
2022-11-02T19:48:51.019Z,9.68
2022-11-02T19:51:31.777Z,9.55
2022-11-02T19:54:01.152Z,9.64
2022-11-02T19:56:36.286Z,9.65
2022-11-02T19:59:04.999Z,9.65
2022-11-02T20:01:35.200Z,9.63
2022-11-02T20:04:03.515Z,9.68
2022-11-02T20:06:40.957Z,9.75
2022-11-02T20:09:17.456Z,9.83
2022-11-02T20:11:45.651Z,9.90
2022-11-02T20:14:14.181Z,10.00
2022-11-02T20:16:41.848Z,10.05
2022-11-02T20:19:09.641Z,9.97
2022-11-02T20:21:42.807Z,9.95
2022-11-02T20:24:13.061Z,10.17
2022-11-02T20:26:43.872Z,10.19
2022-11-02T20:29:13.853Z,10.18
2022-11-02T20:31:44.825Z,10.19
2022-11-02T20:34:13.124Z,10.16
2022-11-02T20:36:40.627Z,10.14
2022-11-02T20:39:08.316Z,10.09
2022-11-02T20:41:35.264Z,9.73
2022-11-02T20:44:02.257Z,10.06
2022-11-02T20:46:37.878Z,10.08
2022-11-02T20:49:20.052Z,10.08
2022-11-02T20:51:53.236Z,10.06
2022-11-02T20:54:22.490Z,10.03
2022-11-02T20:56:50.564Z,10.05
2022-11-02T20:59:17.891Z,10.04
2022-11-02T21:01:45.655Z,10.07
2022-11-02T21:04:18.534Z,10.01
2022-11-02T21:06:48.085Z,9.96
2022-11-02T21:09:15.128Z,9.94
2022-11-02T21:12:01.759Z,9.82
2022-11-02T21:14:28.728Z,9.76
2022-11-02T21:16:55.791Z,9.70
2022-11-02T21:19:23.302Z,9.61
2022-11-02T21:21:53.809Z,9.50
2022-11-02T21:24:23.798Z,9.38
2022-11-02T21:26:51.130Z,8.98
2022-11-02T21:29:18.059Z,9.12
2022-11-02T21:31:45.799Z,9.02
2022-11-02T21:34:12.845Z,8.90
2022-11-02T21:36:40.702Z,8.85
2022-11-02T21:39:08.065Z,8.84
2022-11-02T21:41:38.711Z,8.79
2022-11-02T21:44:07.486Z,8.81
2022-11-02T21:46:34.597Z,8.83
2022-11-02T21:49:03.138Z,8.85
2022-11-02T21:51:31.013Z,8.84
2022-11-02T21:53:58.425Z,8.83
2022-11-02T21:56:27.236Z,8.77
2022-11-02T21:58:56.263Z,8.81
2022-11-02T22:01:47.253Z,8.73
2022-11-02T22:04:21.795Z,8.69
2022-11-02T22:06:49.870Z,8.63
2022-11-02T22:09:17.584Z,8.58
2022-11-02T22:11:45.265Z,8.49
2022-11-02T22:14:12.918Z,8.39
2022-11-02T22:16:43.893Z,8.33
2022-11-02T22:19:14.687Z,8.37
2022-11-02T22:21:44.901Z,8.36
2022-11-02T22:24:12.982Z,8.33
2022-11-02T22:26:40.790Z,8.26
2022-11-02T22:29:08.497Z,8.16
2022-11-02T22:31:42.238Z,8.03
2022-11-02T22:34:11.400Z,7.90
2022-11-02T22:36:40.541Z,7.79
2022-11-02T22:39:10.153Z,7.69
2022-11-02T22:41:45.956Z,7.62
2022-11-02T22:44:15.543Z,7.57
2022-11-02T22:46:45.174Z,7.56
2022-11-02T22:49:14.371Z,7.50
2022-11-02T22:51:43.609Z,7.49
2022-11-02T22:54:15.847Z,7.48
2022-11-02T22:56:44.430Z,7.51
2022-11-02T22:59:11.643Z,7.55
2022-11-02T23:01:39.273Z,7.62
2022-11-02T23:04:07.288Z,7.67
2022-11-02T23:06:35.068Z,7.70
2022-11-02T23:09:02.500Z,7.75
2022-11-02T23:11:32.742Z,7.79
2022-11-02T23:14:03.158Z,7.82
2022-11-02T23:16:35.816Z,7.82
2022-11-02T23:19:27.796Z,7.84
2022-11-02T23:22:43.845Z,7.82
2022-11-02T23:25:19.908Z,7.80
2022-11-02T23:28:15.399Z,7.81
2022-11-02T23:31:01.846Z,7.82
2022-11-02T23:33:32.048Z,7.76
2022-11-02T23:36:12.745Z,7.72
2022-11-02T23:38:59.560Z,7.69
2022-11-02T23:41:26.663Z,7.65
2022-11-02T23:44:12.023Z,7.62
2022-11-02T23:46:43.294Z,7.59
2022-11-02T23:49:11.260Z,7.57
2022-11-02T23:51:56.904Z,7.51
2022-11-02T23:54:42.418Z,7.50
2022-11-02T23:57:09.333Z,7.46
2022-11-02T23:59:36.247Z,7.47
